sensor_id;sensor_type;location;lat;lon;timestamp;pressure;altitude;pressure_sealevel;temperature
69186;BMP280;56298;49.246;9.410;2023-05-07T00:00:07;99396.16;;;13.42
69186;BMP280;56298;49.246;9.410;2023-05-07T00:02:33;99403.66;;;13.41
69186;BMP280;56298;49.246;9.410;2023-05-07T00:04:58;99399.19;;;13.33
69186;BMP280;56298;49.246;9.410;2023-05-07T00:07:24;99405.16;;;13.38
69186;BMP280;56298;49.246;9.410;2023-05-07T00:09:49;99395.97;;;13.27
69186;BMP280;56298;49.246;9.410;2023-05-07T00:12:14;99386.91;;;13.27
69186;BMP280;56298;49.246;9.410;2023-05-07T00:14:40;99394.69;;;13.17
69186;BMP280;56298;49.246;9.410;2023-05-07T00:17:05;99390.84;;;12.99
69186;BMP280;56298;49.246;9.410;2023-05-07T00:19:30;99398.00;;;13.03
69186;BMP280;56298;49.246;9.410;2023-05-07T00:21:56;99389.66;;;12.96
69186;BMP280;56298;49.246;9.410;2023-05-07T00:24:23;99395.97;;;13.00
69186;BMP280;56298;49.246;9.410;2023-05-07T00:26:49;99385.88;;;13.08
69186;BMP280;56298;49.246;9.410;2023-05-07T00:29:14;99389.44;;;13.12
69186;BMP280;56298;49.246;9.410;2023-05-07T00:31:39;99388.31;;;13.13
69186;BMP280;56298;49.246;9.410;2023-05-07T00:34:05;99388.25;;;13.09
69186;BMP280;56298;49.246;9.410;2023-05-07T00:36:31;99388.84;;;13.22
69186;BMP280;56298;49.246;9.410;2023-05-07T00:38:58;99387.63;;;13.20
69186;BMP280;56298;49.246;9.410;2023-05-07T00:41:25;99379.59;;;13.11
69186;BMP280;56298;49.246;9.410;2023-05-07T00:43:50;99371.53;;;12.95
69186;BMP280;56298;49.246;9.410;2023-05-07T00:46:16;99367.88;;;12.87
69186;BMP280;56298;49.246;9.410;2023-05-07T00:48:42;99367.53;;;12.92
69186;BMP280;56298;49.246;9.410;2023-05-07T00:51:07;99360.78;;;12.86
69186;BMP280;56298;49.246;9.410;2023-05-07T00:53:34;99361.00;;;13.01
69186;BMP280;56298;49.246;9.410;2023-05-07T00:56:00;99361.34;;;12.99
69186;BMP280;56298;49.246;9.410;2023-05-07T00:58:26;99360.66;;;13.06
69186;BMP280;56298;49.246;9.410;2023-05-07T01:00:51;99365.97;;;12.91
69186;BMP280;56298;49.246;9.410;2023-05-07T01:03:17;99362.94;;;13.00
69186;BMP280;56298;49.246;9.410;2023-05-07T01:05:43;99355.91;;;13.03
69186;BMP280;56298;49.246;9.410;2023-05-07T01:08:10;99368.91;;;13.06
69186;BMP280;56298;49.246;9.410;2023-05-07T01:10:36;99366.91;;;13.03
69186;BMP280;56298;49.246;9.410;2023-05-07T01:13:01;99358.13;;;12.93
69186;BMP280;56298;49.246;9.410;2023-05-07T01:15:27;99356.78;;;12.80
69186;BMP280;56298;49.246;9.410;2023-05-07T01:17:52;99357.81;;;12.72
69186;BMP280;56298;49.246;9.410;2023-05-07T01:20:18;99357.88;;;12.75
69186;BMP280;56298;49.246;9.410;2023-05-07T01:22:44;99351.81;;;12.66
69186;BMP280;56298;49.246;9.410;2023-05-07T01:25:10;99357.00;;;12.71
69186;BMP280;56298;49.246;9.410;2023-05-07T01:27:35;99348.75;;;12.71
69186;BMP280;56298;49.246;9.410;2023-05-07T01:30:03;99354.25;;;12.71
69186;BMP280;56298;49.246;9.410;2023-05-07T01:32:45;99350.41;;;12.76
69186;BMP280;56298;49.246;9.410;2023-05-07T01:35:16;99346.47;;;12.77
69186;BMP280;56298;49.246;9.410;2023-05-07T01:37:43;99346.34;;;12.69
69186;BMP280;56298;49.246;9.410;2023-05-07T01:40:09;99341.16;;;12.61
69186;BMP280;56298;49.246;9.410;2023-05-07T01:42:35;99344.63;;;12.58
69186;BMP280;56298;49.246;9.410;2023-05-07T01:45:00;99350.56;;;12.60
69186;BMP280;56298;49.246;9.410;2023-05-07T01:47:26;99353.25;;;12.56
69186;BMP280;56298;49.246;9.410;2023-05-07T01:49:51;99345.91;;;12.64
69186;BMP280;56298;49.246;9.410;2023-05-07T01:52:17;99348.59;;;12.60
69186;BMP280;56298;49.246;9.410;2023-05-07T01:54:42;99351.75;;;12.62
69186;BMP280;56298;49.246;9.410;2023-05-07T01:57:07;99343.47;;;12.59
69186;BMP280;56298;49.246;9.410;2023-05-07T01:59:33;99333.03;;;12.45
69186;BMP280;56298;49.246;9.410;2023-05-07T02:01:58;99332.53;;;12.39
69186;BMP280;56298;49.246;9.410;2023-05-07T02:04:23;99341.06;;;12.34
69186;BMP280;56298;49.246;9.410;2023-05-07T02:06:49;99339.38;;;12.49
69186;BMP280;56298;49.246;9.410;2023-05-07T02:09:15;99332.97;;;12.41
69186;BMP280;56298;49.246;9.410;2023-05-07T02:11:41;99341.47;;;12.32
69186;BMP280;56298;49.246;9.410;2023-05-07T02:14:06;99339.13;;;12.34
69186;BMP280;56298;49.246;9.410;2023-05-07T02:16:31;99336.94;;;12.44
69186;BMP280;56298;49.246;9.410;2023-05-07T02:18:56;99342.69;;;12.35
69186;BMP280;56298;49.246;9.410;2023-05-07T02:21:23;99344.59;;;12.31
69186;BMP280;56298;49.246;9.410;2023-05-07T02:23:48;99345.44;;;12.35
69186;BMP280;56298;49.246;9.410;2023-05-07T02:26:13;99347.81;;;12.36
69186;BMP280;56298;49.246;9.410;2023-05-07T02:28:39;99350.19;;;12.38
69186;BMP280;56298;49.246;9.410;2023-05-07T02:31:04;99349.31;;;12.34
69186;BMP280;56298;49.246;9.410;2023-05-07T02:33:29;99352.03;;;12.30
69186;BMP280;56298;49.246;9.410;2023-05-07T02:35:55;99349.63;;;12.29
69186;BMP280;56298;49.246;9.410;2023-05-07T02:38:21;99350.56;;;12.36
69186;BMP280;56298;49.246;9.410;2023-05-07T02:40:46;99337.19;;;12.35
69186;BMP280;56298;49.246;9.410;2023-05-07T02:43:12;99344.69;;;12.38
69186;BMP280;56298;49.246;9.410;2023-05-07T02:45:37;99347.63;;;12.49
69186;BMP280;56298;49.246;9.410;2023-05-07T02:48:03;99353.13;;;12.49
69186;BMP280;56298;49.246;9.410;2023-05-07T02:50:29;99351.72;;;12.59
69186;BMP280;56298;49.246;9.410;2023-05-07T02:52:54;99353.66;;;12.58
69186;BMP280;56298;49.246;9.410;2023-05-07T02:55:20;99343.47;;;12.59
69186;BMP280;56298;49.246;9.410;2023-05-07T02:57:45;99358.84;;;12.63
69186;BMP280;56298;49.246;9.410;2023-05-07T03:02:37;99354.16;;;12.64
69186;BMP280;56298;49.246;9.410;2023-05-07T03:05:02;99351.75;;;12.62
69186;BMP280;56298;49.246;9.410;2023-05-07T03:07:28;99347.47;;;12.61
69186;BMP280;56298;49.246;9.410;2023-05-07T03:09:53;99352.41;;;12.52
69186;BMP280;56298;49.246;9.410;2023-05-07T03:12:19;99358.13;;;12.66
69186;BMP280;56298;49.246;9.410;2023-05-07T03:14:45;99352.03;;;12.53
69186;BMP280;56298;49.246;9.410;2023-05-07T03:17:10;99343.84;;;12.57
69186;BMP280;56298;49.246;9.410;2023-05-07T03:19:35;99343.09;;;12.60
69186;BMP280;56298;49.246;9.410;2023-05-07T03:22:01;99342.94;;;12.49
69186;BMP280;56298;49.246;9.410;2023-05-07T03:24:26;99339.13;;;12.34
69186;BMP280;56298;49.246;9.410;2023-05-07T03:26:51;99344.50;;;12.27
69186;BMP280;56298;49.246;9.410;2023-05-07T03:29:16;99337.66;;;12.40
69186;BMP280;56298;49.246;9.410;2023-05-07T03:31:42;99339.19;;;12.38
69186;BMP280;56298;49.246;9.410;2023-05-07T03:34:07;99338.03;;;12.39
69186;BMP280;56298;49.246;9.410;2023-05-07T03:36:32;99341.72;;;12.23
69186;BMP280;56298;49.246;9.410;2023-05-07T03:38:57;99342.13;;;12.25
69186;BMP280;56298;49.246;9.410;2023-05-07T03:41:23;99336.00;;;12.12
69186;BMP280;56298;49.246;9.410;2023-05-07T03:43:48;99338.16;;;12.23
69186;BMP280;56298;49.246;9.410;2023-05-07T03:46:13;99335.03;;;12.24
69186;BMP280;56298;49.246;9.410;2023-05-07T03:48:38;99329.16;;;12.26
69186;BMP280;56298;49.246;9.410;2023-05-07T03:51:04;99330.03;;;12.30
69186;BMP280;56298;49.246;9.410;2023-05-07T03:53:29;99335.66;;;12.14
69186;BMP280;56298;49.246;9.410;2023-05-07T03:55:54;99337.03;;;12.24
69186;BMP280;56298;49.246;9.410;2023-05-07T03:58:19;99336.34;;;12.31
69186;BMP280;56298;49.246;9.410;2023-05-07T04:00:45;99341.75;;;12.27
69186;BMP280;56298;49.246;9.410;2023-05-07T04:03:10;99347.38;;;12.34
69186;BMP280;56298;49.246;9.410;2023-05-07T04:05:35;99344.50;;;12.27
69186;BMP280;56298;49.246;9.410;2023-05-07T04:08:01;99345.00;;;12.33
69186;BMP280;56298;49.246;9.410;2023-05-07T04:10:27;99345.72;;;12.30
69186;BMP280;56298;49.246;9.410;2023-05-07T04:12:53;99344.69;;;12.38
69186;BMP280;56298;49.246;9.410;2023-05-07T04:15:18;99345.91;;;12.40
69186;BMP280;56298;49.246;9.410;2023-05-07T04:17:43;99349.19;;;12.50
69186;BMP280;56298;49.246;9.410;2023-05-07T04:20:10;99348.50;;;12.53
69186;BMP280;56298;49.246;9.410;2023-05-07T04:22:36;99360.09;;;12.66
69186;BMP280;56298;49.246;9.410;2023-05-07T04:25:01;99369.56;;;12.68
69186;BMP280;56298;49.246;9.410;2023-05-07T04:27:26;99366.66;;;12.85
69186;BMP280;56298;49.246;9.410;2023-05-07T04:29:53;99364.88;;;12.96
69186;BMP280;56298;49.246;9.410;2023-05-07T04:32:21;99371.44;;;12.88
69186;BMP280;56298;49.246;9.410;2023-05-07T04:34:46;99366.09;;;12.99
69186;BMP280;56298;49.246;9.410;2023-05-07T04:37:11;99375.03;;;12.92
69186;BMP280;56298;49.246;9.410;2023-05-07T04:39:37;99367.72;;;13.03
69186;BMP280;56298;49.246;9.410;2023-05-07T04:42:02;99373.72;;;13.13
69186;BMP280;56298;49.246;9.410;2023-05-07T04:44:28;99378.97;;;13.21
69186;BMP280;56298;49.246;9.410;2023-05-07T04:46:56;99380.47;;;13.15
69186;BMP280;56298;49.246;9.410;2023-05-07T04:49:21;99385.97;;;13.15
69186;BMP280;56298;49.246;9.410;2023-05-07T04:51:46;99386.91;;;13.27
69186;BMP280;56298;49.246;9.410;2023-05-07T04:54:11;99387.91;;;13.42
69186;BMP280;56298;49.246;9.410;2023-05-07T04:56:37;99397.38;;;13.44
69186;BMP280;56298;49.246;9.410;2023-05-07T04:59:02;99398.66;;;13.50
69186;BMP280;56298;49.246;9.410;2023-05-07T05:01:27;99402.03;;;13.71
69186;BMP280;56298;49.246;9.410;2023-05-07T05:03:52;99400.97;;;13.82
69186;BMP280;56298;49.246;9.410;2023-05-07T05:06:17;99406.97;;;13.88
69186;BMP280;56298;49.246;9.410;2023-05-07T05:08:43;99400.31;;;13.93
69186;BMP280;56298;49.246;9.410;2023-05-07T05:11:08;99401.56;;;13.99
69186;BMP280;56298;49.246;9.410;2023-05-07T05:13:33;99408.59;;;13.93
69186;BMP280;56298;49.246;9.410;2023-05-07T05:15:58;99411.91;;;14.09
69186;BMP280;56298;49.246;9.410;2023-05-07T05:18:24;99408.47;;;14.20
69186;BMP280;56298;49.246;9.410;2023-05-07T05:20:51;99415.16;;;14.64
69186;BMP280;56298;49.246;9.410;2023-05-07T05:23:16;99416.47;;;14.81
69186;BMP280;56298;49.246;9.410;2023-05-07T05:25:41;99414.63;;;14.96
69186;BMP280;56298;49.246;9.410;2023-05-07T05:28:07;99403.34;;;15.27
69186;BMP280;56298;49.246;9.410;2023-05-07T05:30:32;99409.00;;;15.56
69186;BMP280;56298;49.246;9.410;2023-05-07T05:32:57;99400.72;;;15.56
69186;BMP280;56298;49.246;9.410;2023-05-07T05:35:23;99401.94;;;15.65
69186;BMP280;56298;49.246;9.410;2023-05-07T05:37:48;99398.81;;;15.81
69186;BMP280;56298;49.246;9.410;2023-05-07T05:40:13;99402.81;;;16.09
69186;BMP280;56298;49.246;9.410;2023-05-07T05:42:38;99402.78;;;16.02
69186;BMP280;56298;49.246;9.410;2023-05-07T05:45:04;99400.84;;;16.50
69186;BMP280;56298;49.246;9.410;2023-05-07T05:47:29;99398.00;;;17.01
69186;BMP280;56298;49.246;9.410;2023-05-07T05:49:55;99392.34;;;17.37
69186;BMP280;56298;49.246;9.410;2023-05-07T05:52:20;99405.66;;;18.27
69186;BMP280;56298;49.246;9.410;2023-05-07T05:54:48;99395.16;;;19.50
69186;BMP280;56298;49.246;9.410;2023-05-07T05:57:13;99395.66;;;20.68
69186;BMP280;56298;49.246;9.410;2023-05-07T05:59:39;99394.59;;;21.55
69186;BMP280;56298;49.246;9.410;2023-05-07T06:02:04;99398.59;;;22.37
69186;BMP280;56298;49.246;9.410;2023-05-07T06:04:30;99399.75;;;22.52
69186;BMP280;56298;49.246;9.410;2023-05-07T06:06:58;99400.00;;;22.12
69186;BMP280;56298;49.246;9.410;2023-05-07T06:09:23;99403.13;;;22.30
69186;BMP280;56298;49.246;9.410;2023-05-07T06:11:49;99407.16;;;21.80
69186;BMP280;56298;49.246;9.410;2023-05-07T06:14:17;99405.44;;;20.96
69186;BMP280;56298;49.246;9.410;2023-05-07T06:16:42;99402.91;;;20.17
69186;BMP280;56298;49.246;9.410;2023-05-07T06:19:07;99408.97;;;19.57
69186;BMP280;56298;49.246;9.410;2023-05-07T06:21:33;99409.06;;;19.50
69186;BMP280;56298;49.246;9.410;2023-05-07T06:23:58;99411.34;;;19.86
69186;BMP280;56298;49.246;9.410;2023-05-07T06:26:23;99408.28;;;20.04
69186;BMP280;56298;49.246;9.410;2023-05-07T06:28:48;99403.88;;;20.31
69186;BMP280;56298;49.246;9.410;2023-05-07T06:31:15;99409.94;;;20.26
69186;BMP280;56298;49.246;9.410;2023-05-07T06:33:41;99409.84;;;20.29
69186;BMP280;56298;49.246;9.410;2023-05-07T06:36:07;99409.25;;;20.18
69186;BMP280;56298;49.246;9.410;2023-05-07T06:38:32;99408.63;;;20.54
69186;BMP280;56298;49.246;9.410;2023-05-07T06:40:58;99412.28;;;21.12
69186;BMP280;56298;49.246;9.410;2023-05-07T06:43:23;99409.72;;;21.01
69186;BMP280;56298;49.246;9.410;2023-05-07T06:45:48;99404.06;;;21.04
69186;BMP280;56298;49.246;9.410;2023-05-07T06:48:13;99413.06;;;21.12
69186;BMP280;56298;49.246;9.410;2023-05-07T06:50:39;99406.59;;;20.34
69186;BMP280;56298;49.246;9.410;2023-05-07T06:53:04;99413.22;;;19.93
69186;BMP280;56298;49.246;9.410;2023-05-07T06:55:30;99401.19;;;19.45
69186;BMP280;56298;49.246;9.410;2023-05-07T06:57:56;99405.75;;;19.31
69186;BMP280;56298;49.246;9.410;2023-05-07T07:00:23;99413.19;;;19.07
69186;BMP280;56298;49.246;9.410;2023-05-07T07:02:48;99406.41;;;19.98
69186;BMP280;56298;49.246;9.410;2023-05-07T07:05:13;99416.44;;;20.83
69186;BMP280;56298;49.246;9.410;2023-05-07T07:07:38;99410.97;;;21.36
69186;BMP280;56298;49.246;9.410;2023-05-07T07:10:04;99405.03;;;21.34
69186;BMP280;56298;49.246;9.410;2023-05-07T07:12:30;99412.63;;;21.14
69186;BMP280;56298;49.246;9.410;2023-05-07T07:14:55;99413.00;;;20.95
69186;BMP280;56298;49.246;9.410;2023-05-07T07:17:20;99411.91;;;20.49
69186;BMP280;56298;49.246;9.410;2023-05-07T07:19:46;99407.97;;;20.46
69186;BMP280;56298;49.246;9.410;2023-05-07T07:22:11;99409.22;;;20.65
69186;BMP280;56298;49.246;9.410;2023-05-07T07:24:36;99408.56;;;21.18
69186;BMP280;56298;49.246;9.410;2023-05-07T07:27:01;99403.09;;;21.15
69186;BMP280;56298;49.246;9.410;2023-05-07T07:29:27;99406.66;;;21.68
69186;BMP280;56298;49.246;9.410;2023-05-07T07:31:52;99402.19;;;22.50
69186;BMP280;56298;49.246;9.410;2023-05-07T07:34:17;99408.22;;;23.33
69186;BMP280;56298;49.246;9.410;2023-05-07T07:36:42;99395.56;;;24.38
69186;BMP280;56298;49.246;9.410;2023-05-07T07:39:08;99401.66;;;24.68
69186;BMP280;56298;49.246;9.410;2023-05-07T07:41:33;99401.41;;;25.47
69186;BMP280;56298;49.246;9.410;2023-05-07T07:43:58;99400.19;;;25.17
69186;BMP280;56298;49.246;9.410;2023-05-07T07:46:23;99411.97;;;24.71
69186;BMP280;56298;49.246;9.410;2023-05-07T07:48:49;99399.22;;;23.77
69186;BMP280;56298;49.246;9.410;2023-05-07T07:51:14;99406.41;;;23.27
69186;BMP280;56298;49.246;9.410;2023-05-07T07:53:39;99414.56;;;23.34
69186;BMP280;56298;49.246;9.410;2023-05-07T07:56:06;99418.75;;;23.29
69186;BMP280;56298;49.246;9.410;2023-05-07T07:58:31;99410.13;;;24.10
69186;BMP280;56298;49.246;9.410;2023-05-07T08:00:56;99414.38;;;25.13
69186;BMP280;56298;49.246;9.410;2023-05-07T08:03:22;99408.69;;;25.36
69186;BMP280;56298;49.246;9.410;2023-05-07T08:05:47;99413.78;;;25.69
69186;BMP280;56298;49.246;9.410;2023-05-07T08:08:14;99410.22;;;26.52
69186;BMP280;56298;49.246;9.410;2023-05-07T08:10:40;99413.34;;;26.35
69186;BMP280;56298;49.246;9.410;2023-05-07T08:13:05;99415.53;;;25.25
69186;BMP280;56298;49.246;9.410;2023-05-07T08:15:31;99418.84;;;25.01
69186;BMP280;56298;49.246;9.410;2023-05-07T08:17:56;99420.63;;;25.08
69186;BMP280;56298;49.246;9.410;2023-05-07T08:20:23;99411.66;;;24.47
69186;BMP280;56298;49.246;9.410;2023-05-07T08:22:48;99402.97;;;25.08
69186;BMP280;56298;49.246;9.410;2023-05-07T08:25:13;99399.91;;;25.65
69186;BMP280;56298;49.246;9.410;2023-05-07T08:27:38;99403.66;;;26.18
69186;BMP280;56298;49.246;9.410;2023-05-07T08:30:04;99408.63;;;25.58
69186;BMP280;56298;49.246;9.410;2023-05-07T08:32:29;99417.00;;;25.39
69186;BMP280;56298;49.246;9.410;2023-05-07T08:34:55;99412.13;;;24.67
69186;BMP280;56298;49.246;9.410;2023-05-07T08:37:20;99395.81;;;25.07
69186;BMP280;56298;49.246;9.410;2023-05-07T08:39:45;99390.47;;;24.46
69186;BMP280;56298;49.246;9.410;2023-05-07T08:42:11;99399.66;;;24.24
69186;BMP280;56298;49.246;9.410;2023-05-07T08:44:38;99405.09;;;23.92
69186;BMP280;56298;49.246;9.410;2023-05-07T08:47:06;99392.50;;;24.10
69186;BMP280;56298;49.246;9.410;2023-05-07T08:49:33;99399.38;;;25.48
69186;BMP280;56298;49.246;9.410;2023-05-07T08:51:59;99399.00;;;26.33
69186;BMP280;56298;49.246;9.410;2023-05-07T08:54:24;99413.69;;;26.90
69186;BMP280;56298;49.246;9.410;2023-05-07T08:56:49;99413.69;;;26.90
69186;BMP280;56298;49.246;9.410;2023-05-07T08:59:15;99412.25;;;27.37
69186;BMP280;56298;49.246;9.410;2023-05-07T09:01:40;99410.97;;;27.38
69186;BMP280;56298;49.246;9.410;2023-05-07T09:04:06;99412.13;;;26.89
69186;BMP280;56298;49.246;9.410;2023-05-07T09:06:33;99412.53;;;27.06
69186;BMP280;56298;49.246;9.410;2023-05-07T09:08:58;99413.03;;;27.04
69186;BMP280;56298;49.246;9.410;2023-05-07T09:11:26;99415.19;;;27.09
69186;BMP280;56298;49.246;9.410;2023-05-07T09:13:55;99418.09;;;26.81
69186;BMP280;56298;49.246;9.410;2023-05-07T09:16:21;99414.44;;;26.38
69186;BMP280;56298;49.246;9.410;2023-05-07T09:18:53;99407.44;;;26.85
69186;BMP280;56298;49.246;9.410;2023-05-07T09:21:19;99406.19;;;26.96
69186;BMP280;56298;49.246;9.410;2023-05-07T09:23:45;99399.84;;;27.20
69186;BMP280;56298;49.246;9.410;2023-05-07T09:26:11;99402.19;;;27.12
69186;BMP280;56298;49.246;9.410;2023-05-07T09:28:40;99404.88;;;27.40
69186;BMP280;56298;49.246;9.410;2023-05-07T09:31:06;99399.94;;;27.25
69186;BMP280;56298;49.246;9.410;2023-05-07T09:33:31;99401.03;;;27.28
69186;BMP280;56298;49.246;9.410;2023-05-07T09:35:57;99399.00;;;26.95
69186;BMP280;56298;49.246;9.410;2023-05-07T09:38:22;99396.25;;;27.10
69186;BMP280;56298;49.246;9.410;2023-05-07T09:41:01;99392.31;;;27.16
69186;BMP280;56298;49.246;9.410;2023-05-07T09:43:31;99389.22;;;27.14
69186;BMP280;56298;49.246;9.410;2023-05-07T09:45:58;99394.13;;;27.05
69186;BMP280;56298;49.246;9.410;2023-05-07T09:48:25;99392.38;;;27.41
69186;BMP280;56298;49.246;9.410;2023-05-07T09:50:51;99395.94;;;27.66
69186;BMP280;56298;49.246;9.410;2023-05-07T09:53:21;99388.72;;;27.74
69186;BMP280;56298;49.246;9.410;2023-05-07T09:55:47;99388.25;;;27.51
69186;BMP280;56298;49.246;9.410;2023-05-07T09:58:13;99381.94;;;27.56
69186;BMP280;56298;49.246;9.410;2023-05-07T10:00:40;99390.84;;;27.30
69186;BMP280;56298;49.246;9.410;2023-05-07T10:03:08;99384.25;;;27.33
69186;BMP280;56298;49.246;9.410;2023-05-07T10:05:34;99383.31;;;27.03
69186;BMP280;56298;49.246;9.410;2023-05-07T10:08:00;99383.91;;;27.41
69186;BMP280;56298;49.246;9.410;2023-05-07T10:10:26;99390.75;;;27.25
69186;BMP280;56298;49.246;9.410;2023-05-07T10:12:52;99379.25;;;27.04
69186;BMP280;56298;49.246;9.410;2023-05-07T10:15:18;99372.78;;;27.13
69186;BMP280;56298;49.246;9.410;2023-05-07T10:17:44;99375.00;;;27.33
69186;BMP280;56298;49.246;9.410;2023-05-07T10:20:10;99375.63;;;27.13
69186;BMP280;56298;49.246;9.410;2023-05-07T10:22:43;99377.72;;;26.94
69186;BMP280;56298;49.246;9.410;2023-05-07T10:25:42;99380.41;;;26.79
69186;BMP280;56298;49.246;9.410;2023-05-07T10:28:08;99376.31;;;27.23
69186;BMP280;56298;49.246;9.410;2023-05-07T10:30:48;99373.41;;;27.17
69186;BMP280;56298;49.246;9.410;2023-05-07T10:33:23;99376.28;;;27.08
69186;BMP280;56298;49.246;9.410;2023-05-07T10:35:51;99365.13;;;27.13
69186;BMP280;56298;49.246;9.410;2023-05-07T10:38:20;99363.22;;;27.44
69186;BMP280;56298;49.246;9.410;2023-05-07T10:40:45;99370.88;;;27.68
69186;BMP280;56298;49.246;9.410;2023-05-07T10:43:11;99365.28;;;27.83
69186;BMP280;56298;49.246;9.410;2023-05-07T10:45:36;99368.19;;;27.49
69186;BMP280;56298;49.246;9.410;2023-05-07T10:48:14;99371.13;;;27.55
69186;BMP280;56298;49.246;9.410;2023-05-07T10:50:41;99365.00;;;27.80
69186;BMP280;56298;49.246;9.410;2023-05-07T10:55:46;99367.16;;;27.86
69186;BMP280;56298;49.246;9.410;2023-05-07T11:00:48;99358.31;;;27.93
69186;BMP280;56298;49.246;9.410;2023-05-07T11:03:14;99353.00;;;28.25
69186;BMP280;56298;49.246;9.410;2023-05-07T11:05:40;99340.91;;;28.39
69186;BMP280;56298;49.246;9.410;2023-05-07T11:08:06;99344.53;;;28.40
69186;BMP280;56298;49.246;9.410;2023-05-07T11:10:50;99339.09;;;28.36
69186;BMP280;56298;49.246;9.410;2023-05-07T11:13:17;99353.97;;;28.37
69186;BMP280;56298;49.246;9.410;2023-05-07T11:15:47;99354.53;;;28.56
69186;BMP280;56298;49.246;9.410;2023-05-07T11:18:14;99349.25;;;28.64
69186;BMP280;56298;49.246;9.410;2023-05-07T11:20:51;99344.13;;;28.83
69186;BMP280;56298;49.246;9.410;2023-05-07T11:26:15;99335.88;;;28.79
69186;BMP280;56298;49.246;9.410;2023-05-07T11:28:42;99334.91;;;28.82
69186;BMP280;56298;49.246;9.410;2023-05-07T11:31:08;99346.53;;;28.54
69186;BMP280;56298;49.246;9.410;2023-05-07T11:33:35;99328.91;;;28.75
69186;BMP280;56298;49.246;9.410;2023-05-07T11:36:02;99332.13;;;28.52
69186;BMP280;56298;49.246;9.410;2023-05-07T11:38:29;99321.47;;;28.41
69186;BMP280;56298;49.246;9.410;2023-05-07T11:40:56;99331.06;;;28.50
69186;BMP280;56298;49.246;9.410;2023-05-07T11:43:22;99331.97;;;28.41
69186;BMP280;56298;49.246;9.410;2023-05-07T11:45:50;99330.63;;;28.36
69186;BMP280;56298;49.246;9.410;2023-05-07T11:48:16;99329.56;;;28.34
69186;BMP280;56298;49.246;9.410;2023-05-07T11:50:51;99336.31;;;27.97
69186;BMP280;56298;49.246;9.410;2023-05-07T11:53:17;99335.28;;;28.39
69186;BMP280;56298;49.246;9.410;2023-05-07T11:55:44;99331.84;;;28.65
69186;BMP280;56298;49.246;9.410;2023-05-07T11:58:12;99339.38;;;28.53
69186;BMP280;56298;49.246;9.410;2023-05-07T12:00:37;99333.13;;;28.49
69186;BMP280;56298;49.246;9.410;2023-05-07T12:03:04;99333.66;;;28.68
69186;BMP280;56298;49.246;9.410;2023-05-07T12:05:29;99334.66;;;28.65
69186;BMP280;56298;49.246;9.410;2023-05-07T12:07:58;99325.63;;;29.38
69186;BMP280;56298;49.246;9.410;2023-05-07T12:10:23;99324.69;;;29.47
69186;BMP280;56298;49.246;9.410;2023-05-07T12:12:50;99327.47;;;29.88
69186;BMP280;56298;49.246;9.410;2023-05-07T12:15:16;99325.66;;;29.91
69186;BMP280;56298;49.246;9.410;2023-05-07T12:17:42;99322.84;;;29.91
69186;BMP280;56298;49.246;9.410;2023-05-07T12:20:08;99325.25;;;29.77
69186;BMP280;56298;49.246;9.410;2023-05-07T12:22:33;99330.22;;;29.35
69186;BMP280;56298;49.246;9.410;2023-05-07T12:24:59;99326.19;;;29.22
69186;BMP280;56298;49.246;9.410;2023-05-07T12:27:25;99327.97;;;29.19
69186;BMP280;56298;49.246;9.410;2023-05-07T12:29:51;99325.06;;;29.34
69186;BMP280;56298;49.246;9.410;2023-05-07T12:32:17;99326.47;;;29.44
69186;BMP280;56298;49.246;9.410;2023-05-07T12:34:43;99325.69;;;29.44
69186;BMP280;56298;49.246;9.410;2023-05-07T12:37:08;99322.59;;;29.42
69186;BMP280;56298;49.246;9.410;2023-05-07T12:39:35;99322.66;;;29.06
69186;BMP280;56298;49.246;9.410;2023-05-07T12:42:00;99320.91;;;28.88
69186;BMP280;56298;49.246;9.410;2023-05-07T12:44:32;99318.44;;;28.45
69186;BMP280;56298;49.246;9.410;2023-05-07T12:47:01;99313.53;;;28.61
69186;BMP280;56298;49.246;9.410;2023-05-07T12:49:26;99323.84;;;28.79
69186;BMP280;56298;49.246;9.410;2023-05-07T12:51:53;99318.09;;;28.73
69186;BMP280;56298;49.246;9.410;2023-05-07T12:54:31;99313.75;;;28.72
69186;BMP280;56298;49.246;9.410;2023-05-07T12:57:04;99310.25;;;28.62
69186;BMP280;56298;49.246;9.410;2023-05-07T12:59:41;99310.56;;;28.49
69186;BMP280;56298;49.246;9.410;2023-05-07T13:02:07;99312.78;;;28.45
69186;BMP280;56298;49.246;9.410;2023-05-07T13:04:33;99321.75;;;28.44
69186;BMP280;56298;49.246;9.410;2023-05-07T13:06:59;99321.09;;;28.84
69186;BMP280;56298;49.246;9.410;2023-05-07T13:09:24;99320.91;;;29.09
69186;BMP280;56298;49.246;9.410;2023-05-07T13:11:50;99321.16;;;28.69
69186;BMP280;56298;49.246;9.410;2023-05-07T13:14:15;99315.91;;;28.47
69186;BMP280;56298;49.246;9.410;2023-05-07T13:16:41;99315.16;;;28.47
69186;BMP280;56298;49.246;9.410;2023-05-07T13:19:06;99308.66;;;28.76
69186;BMP280;56298;49.246;9.410;2023-05-07T13:21:31;99308.34;;;28.74
69186;BMP280;56298;49.246;9.410;2023-05-07T13:23:57;99317.75;;;27.75
69186;BMP280;56298;49.246;9.410;2023-05-07T13:26:23;99315.22;;;27.38
69186;BMP280;56298;49.246;9.410;2023-05-07T13:28:48;99322.00;;;27.31
69186;BMP280;56298;49.246;9.410;2023-05-07T13:31:14;99321.34;;;27.76
69186;BMP280;56298;49.246;9.410;2023-05-07T13:33:39;99307.84;;;28.10
69186;BMP280;56298;49.246;9.410;2023-05-07T13:36:04;99307.06;;;28.09
69186;BMP280;56298;49.246;9.410;2023-05-07T13:38:30;99305.44;;;28.18
69186;BMP280;56298;49.246;9.410;2023-05-07T13:40:56;99310.19;;;27.97
69186;BMP280;56298;49.246;9.410;2023-05-07T13:43:21;99296.53;;;27.50
69186;BMP280;56298;49.246;9.410;2023-05-07T13:45:46;99300.34;;;27.13
69186;BMP280;56298;49.246;9.410;2023-05-07T13:48:11;99299.66;;;27.04
69186;BMP280;56298;49.246;9.410;2023-05-07T13:50:37;99289.53;;;26.63
69186;BMP280;56298;49.246;9.410;2023-05-07T13:53:02;99290.91;;;27.01
69186;BMP280;56298;49.246;9.410;2023-05-07T13:55:28;99286.75;;;26.45
69186;BMP280;56298;49.246;9.410;2023-05-07T13:57:59;99279.69;;;26.92
69186;BMP280;56298;49.246;9.410;2023-05-07T14:00:25;99278.72;;;26.62
69186;BMP280;56298;49.246;9.410;2023-05-07T14:02:51;99279.13;;;26.54
69186;BMP280;56298;49.246;9.410;2023-05-07T14:05:17;99271.47;;;26.79
69186;BMP280;56298;49.246;9.410;2023-05-07T14:07:42;99276.97;;;26.74
69186;BMP280;56298;49.246;9.410;2023-05-07T14:10:08;99280.75;;;26.70
69186;BMP280;56298;49.246;9.410;2023-05-07T14:12:34;99279.03;;;26.73